Time;durP1;ratioP1;P1;durP2;ratioP2;P2;SDS_P1;SDS_P2;PMS_P1;PMS_P2;Temp;Humidity;BMP_temperature;BMP_pressure;BME280_temperature;BME280_humidity;BME280_pressure;Samples;Min_cycle;Max_cycle;Signal;HPM_P1;HPM_P2
2023/01/27 00:00:07;;;;;;;18.38;7.28;;;;;;;7.24;56.16;93852.69;5079084;28;20021;-81
2023/01/27 00:02:32;;;;;;;24.05;8.73;;;;;;;7.11;56.66;93852.16;5078861;28;20021;-81
2023/01/27 00:05:00;;;;;;;25.73;8.85;;;;;;;6.78;57.38;93847.09;5079101;28;20020;-81
2023/01/27 00:07:26;;;;;;;22.75;8.68;;;;;;;6.89;56.86;93847.16;5078567;28;20033;-81
2023/01/27 00:09:51;;;;;;;18.75;7.03;;;;;;;6.89;57.21;93845.34;5062067;28;20040;-81
2023/01/27 00:15:03;;;;;;;19.33;7.85;;;;;;;7.25;57.20;93852.44;5078848;28;20036;-81
2023/01/27 00:17:29;;;;;;;18.55;7.97;;;;;;;6.64;57.75;93851.22;5061963;28;20031;-81
2023/01/27 00:19:55;;;;;;;18.92;7.15;;;;;;;6.58;57.51;93844.44;5078559;28;20020;-80
2023/01/27 00:25:04;;;;;;;26.00;8.05;;;;;;;6.48;59.76;93845.97;5078713;28;20130;-81
2023/01/27 00:27:30;;;;;;;26.60;8.15;;;;;;;6.86;58.73;93845.81;5077807;28;20509;-81
2023/01/27 00:29:56;;;;;;;17.98;6.85;;;;;;;7.04;58.19;93836.00;5078262;28;20035;-81
2023/01/27 00:35:05;;;;;;;21.33;7.28;;;;;;;7.06;56.76;93841.72;5078502;28;20075;-81
2023/01/27 00:37:31;;;;;;;22.08;6.80;;;;;;;7.25;57.47;93841.22;5078023;28;20032;-81
2023/01/27 00:39:56;;;;;;;16.65;7.10;;;;;;;7.02;56.84;93844.06;5061376;28;20024;-81
2023/01/27 00:42:21;;;;;;;16.08;6.30;;;;;;;6.30;57.92;93849.00;5061673;28;20054;-81
2023/01/27 00:47:31;;;;;;;19.88;7.63;;;;;;;6.74;56.89;93847.88;5078113;28;20039;-81
2023/01/27 00:49:56;;;;;;;16.80;6.70;;;;;;;6.88;57.52;93838.53;5077905;28;20036;-81
2023/01/27 00:52:22;;;;;;;13.68;5.93;;;;;;;7.38;56.21;93840.72;5078164;28;20445;-81
2023/01/27 00:54:55;;;;;;;16.08;5.88;;;;;;;7.79;55.58;93847.75;5078121;28;20035;-81
2023/01/27 00:57:20;;;;;;;15.75;6.50;;;;;;;7.25;57.42;93847.22;5079284;28;20430;-81
2023/01/27 00:59:46;;;;;;;12.13;6.00;;;;;;;7.46;56.38;93842.81;5079001;28;20023;-81
2023/01/27 01:02:11;;;;;;;19.20;6.78;;;;;;;6.96;58.69;93849.50;5078909;28;20055;-81
2023/01/27 01:04:37;;;;;;;18.38;7.45;;;;;;;6.34;57.92;93850.84;5078936;28;20067;-81
2023/01/27 01:07:02;;;;;;;21.80;6.55;;;;;;;6.82;57.86;93849.22;5076288;28;20032;-81
2023/01/27 01:09:28;;;;;;;14.15;6.50;;;;;;;6.70;58.71;93847.63;5078771;28;20075;-81
2023/01/27 01:11:53;;;;;;;21.08;6.50;;;;;;;6.92;58.18;93846.63;5061073;28;20040;-81
2023/01/27 01:14:18;;;;;;;15.52;6.35;;;;;;;7.10;57.92;93845.38;5078754;28;20028;-81
2023/01/27 01:16:44;;;;;;;17.67;5.70;;;;;;;6.68;57.29;93848.91;5060919;28;20039;-81
2023/01/27 01:19:10;;;;;;;15.52;6.45;;;;;;;7.02;57.92;93843.25;5078646;28;20029;-81
2023/01/27 01:21:36;;;;;;;21.40;6.25;;;;;;;7.12;57.44;93847.72;5077445;28;20446;-81
2023/01/27 01:24:02;;;;;;;12.52;5.47;;;;;;;6.89;57.41;93849.75;5077410;28;20033;-81
2023/01/27 01:26:28;;;;;;;11.38;5.30;;;;;;;7.33;56.51;93854.53;5077340;28;20429;-81
2023/01/27 01:28:53;;;;;;;15.68;6.07;;;;;;;7.21;56.50;93852.19;5077199;28;20103;-81
2023/01/27 01:31:19;;;;;;;17.23;6.18;;;;;;;7.45;56.24;93856.88;5077188;28;20032;-81
2023/01/27 01:33:45;;;;;;;15.07;5.72;;;;;;;6.62;58.94;93851.50;5077177;28;20032;-81
2023/01/27 01:36:13;;;;;;;18.95;6.03;;;;;;;6.55;58.68;93856.13;5076968;28;20448;-81
2023/01/27 01:38:39;;;;;;;16.90;6.63;;;;;;;6.89;57.54;93854.97;5078283;28;20086;-81
2023/01/27 01:41:06;;;;;;;14.50;5.88;;;;;;;7.20;56.88;93844.59;5077032;28;20107;-81
2023/01/27 01:43:32;;;;;;;22.95;6.18;;;;;;;6.36;58.67;93853.97;5076950;28;20112;-81
2023/01/27 01:45:58;;;;;;;17.85;6.53;;;;;;;6.60;58.08;93850.19;5060457;28;20115;-81
2023/01/27 01:48:47;;;;;;;19.30;6.18;;;;;;;7.21;57.31;93844.34;5078079;28;20326;-81
2023/01/27 01:51:35;;;;;;;14.07;5.82;;;;;;;7.48;56.40;93843.34;5076789;28;20032;-81
2023/01/27 01:54:08;;;;;;;19.08;6.57;;;;;;;7.09;58.23;93851.63;5076920;28;20032;-81
2023/01/27 01:56:51;;;;;;;17.52;5.78;;;;;;;7.38;57.84;93852.97;5076649;28;20024;-81
2023/01/27 01:59:20;;;;;;;19.30;6.13;;;;;;;6.95;58.50;93847.94;5077872;28;20031;-81
2023/01/27 02:01:46;;;;;;;13.60;5.45;;;;;;;6.77;59.77;93850.75;5076645;28;20025;-80
2023/01/27 02:04:18;;;;;;;16.92;5.68;;;;;;;6.97;58.85;93854.47;5076447;28;20043;-80
2023/01/27 02:06:53;;;;;;;12.75;5.00;;;;;;;6.20;59.20;93847.91;5059916;28;20039;-80
2023/01/27 02:09:20;;;;;;;15.60;6.03;;;;;;;6.81;60.51;93851.03;5076179;28;20036;-80
2023/01/27 02:11:46;;;;;;;15.77;5.47;;;;;;;6.92;58.34;93844.81;5060032;28;20039;-81
2023/01/27 02:14:12;;;;;;;19.40;6.10;;;;;;;7.12;57.81;93837.31;5076425;28;20036;-81
2023/01/27 02:16:37;;;;;;;18.27;6.22;;;;;;;6.58;58.48;93844.44;5075621;28;20032;-80
2023/01/27 02:19:03;;;;;;;21.23;6.65;;;;;;;6.55;58.67;93850.16;5076058;28;20105;-81
2023/01/27 02:21:30;;;;;;;18.92;5.97;;;;;;;6.78;58.00;93843.75;5110002;28;20029;-81
2023/01/27 02:23:59;;;;;;;20.65;6.13;;;;;;;6.96;57.96;93839.09;5076208;28;20039;-81
2023/01/27 02:26:35;;;;;;;17.08;5.78;;;;;;;6.78;59.21;93839.28;5075989;28;20032;-80
2023/01/27 02:29:07;;;;;;;17.95;4.85;;;;;;;7.05;57.11;93834.97;5075922;28;20028;-80
2023/01/27 02:31:32;;;;;;;18.33;6.18;;;;;;;6.76;57.07;93828.34;5059290;28;20067;-81
2023/01/27 02:34:01;;;;;;;17.88;6.45;;;;;;;6.69;57.97;93833.03;5077003;28;20456;-81
2023/01/27 02:36:29;;;;;;;21.02;6.20;;;;;;;6.46;57.97;93836.84;5075830;28;20032;-81
2023/01/27 02:38:56;;;;;;;12.93;5.40;;;;;;;6.59;58.51;93835.59;5075764;28;20029;-81
2023/01/27 02:41:40;;;;;;;21.75;7.07;;;;;;;6.22;60.48;93835.41;5075863;28;20032;-81
2023/01/27 02:44:06;;;;;;;13.10;5.32;;;;;;;6.03;61.96;93834.28;5076192;28;20027;-81
2023/01/27 02:46:32;;;;;;;16.65;5.97;;;;;;;6.29;58.74;93830.00;5059243;28;20437;-81
2023/01/27 02:48:57;;;;;;;20.35;7.13;;;;;;;6.80;57.18;93826.03;5059189;28;20127;-81
2023/01/27 02:51:23;;;;;;;11.40;5.30;;;;;;;6.63;58.63;93827.03;5075738;28;20343;-80
2023/01/27 02:53:49;;;;;;;20.35;6.18;;;;;;;6.31;58.88;93820.13;5075763;28;20449;-80
2023/01/27 02:56:14;;;;;;;17.38;6.75;;;;;;;6.57;58.04;93824.66;5076720;28;20032;-81
2023/01/27 02:58:40;;;;;;;15.85;6.28;;;;;;;6.43;58.92;93824.34;5075685;28;20057;-81
2023/01/27 03:01:05;;;;;;;19.98;6.15;;;;;;;5.64;60.55;93830.09;5077140;28;20048;-81
2023/01/27 03:03:31;;;;;;;21.10;7.43;;;;;;;5.57;62.12;93825.13;5075482;28;20033;-81
2023/01/27 03:05:56;;;;;;;20.23;6.20;;;;;;;6.05;60.85;93832.22;5075653;28;20322;-81
2023/01/27 03:08:22;;;;;;;19.25;6.18;;;;;;;6.09;61.96;93820.25;5075361;28;20032;-80
2023/01/27 03:10:53;;;;;;;18.13;6.78;;;;;;;6.61;60.83;93821.28;5076239;28;20052;-81
2023/01/27 03:13:22;;;;;;;19.42;6.50;;;;;;;6.68;59.77;93825.47;5075448;28;20078;-81
2023/01/27 03:18:32;;;;;;;17.42;7.28;;;;;;;6.54;60.77;93825.19;5075597;28;20059;-81
2023/01/27 03:21:03;;;;;;;22.98;6.50;;;;;;;6.90;59.48;93809.66;5042308;28;20036;-81
2023/01/27 03:23:33;;;;;;;22.67;6.18;;;;;;;5.22;62.93;93814.19;5058526;28;20040;-81
2023/01/27 03:25:58;;;;;;;16.33;6.88;;;;;;;6.01;61.28;93815.53;5059296;28;20122;-81
2023/01/27 03:28:24;;;;;;;20.35;7.53;;;;;;;6.18;61.19;93813.56;5075205;28;20067;-81
2023/01/27 03:30:49;;;;;;;15.50;6.43;;;;;;;5.87;61.64;93812.56;5080278;28;20036;-81
2023/01/27 03:33:14;;;;;;;18.30;7.18;;;;;;;6.41;60.15;93814.19;5062979;28;20035;-81
2023/01/27 03:35:46;;;;;;;19.13;7.03;;;;;;;6.33;60.74;93817.28;5080596;28;20111;-81
2023/01/27 03:46:25;;;;;;;18.67;7.40;;;;;;;6.70;58.96;93818.19;5079258;28;20050;-80
2023/01/27 03:48:52;;;;;;;17.77;6.85;;;;;;;6.21;60.07;93815.66;5079181;28;20032;-80
2023/01/27 03:51:19;;;;;;;19.63;7.43;;;;;;;6.36;59.75;93816.75;5078961;28;20037;-81
2023/01/27 03:53:45;;;;;;;24.33;7.18;;;;;;;6.56;59.38;93815.28;5062577;28;20032;-80
2023/01/27 03:56:11;;;;;;;18.85;7.22;;;;;;;6.26;59.42;93827.13;5078730;28;20043;-81
2023/01/27 03:58:37;;;;;;;19.73;6.72;;;;;;;6.55;58.97;93824.13;5062475;28;20055;-81
2023/01/27 04:01:15;;;;;;;16.13;6.97;;;;;;;7.00;58.32;93814.09;5062354;28;20338;-81
2023/01/27 04:09:23;;;;;;;19.80;6.60;;;;;;;6.74;57.29;93820.03;5077324;28;20035;-81
2023/01/27 04:11:54;;;;;;;20.45;6.53;;;;;;;6.10;58.53;93821.06;5079898;28;20032;-81
2023/01/27 04:14:25;;;;;;;17.27;7.25;;;;;;;6.26;60.28;93824.53;5063359;28;20031;-81
2023/01/27 04:16:52;;;;;;;23.80;7.38;;;;;;;6.75;58.21;93826.03;5078544;28;20032;-81
2023/01/27 04:19:18;;;;;;;15.32;6.90;;;;;;;6.04;59.08;93821.03;5078492;28;20036;-81
2023/01/27 04:21:44;;;;;;;20.40;6.55;;;;;;;6.49;59.37;93831.91;5078101;28;20110;-81
2023/01/27 04:24:15;;;;;;;25.33;8.20;;;;;;;6.25;59.16;93828.94;5062020;28;20029;-81
2023/01/27 04:26:44;;;;;;;21.13;6.53;;;;;;;5.88;58.78;93827.13;5078569;28;20127;-81
2023/01/27 04:29:11;;;;;;;22.98;7.15;;;;;;;6.26;58.07;93825.31;5078228;28;20029;-81
2023/01/27 04:31:36;;;;;;;20.75;7.22;;;;;;;6.34;57.72;93822.22;5061754;28;20035;-81
2023/01/27 04:34:02;;;;;;;18.33;7.20;;;;;;;6.45;57.96;93827.47;5061315;28;20028;-81
2023/01/27 04:36:27;;;;;;;21.63;7.28;;;;;;;6.39;58.16;93818.88;5078174;28;20425;-81
2023/01/27 04:38:53;;;;;;;21.92;7.45;;;;;;;5.77;58.19;93834.88;5078248;28;20031;-81
2023/01/27 04:41:18;;;;;;;20.17;6.95;;;;;;;5.96;58.44;93828.50;5078148;28;20024;-81
2023/01/27 04:43:44;;;;;;;22.58;7.95;;;;;;;6.03;58.33;93829.09;5061662;28;20056;-81
2023/01/27 04:46:09;;;;;;;21.77;8.10;;;;;;;6.55;57.42;93832.72;5077893;28;20028;-81
2023/01/27 04:48:35;;;;;;;18.08;7.38;;;;;;;6.13;56.94;93825.75;5045280;28;20117;-81
2023/01/27 04:51:00;;;;;;;23.40;7.82;;;;;;;6.06;56.50;93829.38;5077950;28;20036;-81
2023/01/27 04:53:26;;;;;;;23.13;7.65;;;;;;;6.34;56.98;93824.84;5076143;28;20036;-81
2023/01/27 04:55:51;;;;;;;23.20;8.13;;;;;;;6.35;58.53;93825.59;5094679;28;20353;-81
2023/01/27 04:58:17;;;;;;;20.02;7.38;;;;;;;6.62;56.53;93824.66;5077999;28;20323;-81
2023/01/27 05:00:43;;;;;;;21.90;7.72;;;;;;;6.48;56.58;93826.97;5077863;28;20024;-81
2023/01/27 05:03:10;;;;;;;18.98;6.93;;;;;;;6.19;57.97;93838.53;5061311;28;20024;-81
2023/01/27 05:05:39;;;;;;;18.45;6.95;;;;;;;5.66;58.14;93831.41;5061316;28;20025;-81
2023/01/27 05:08:07;;;;;;;23.27;8.18;;;;;;;5.82;58.37;93834.13;5094098;28;20035;-81
2023/01/27 05:10:36;;;;;;;16.92;6.70;;;;;;;6.40;57.62;93830.84;5077322;28;20430;-81
2023/01/27 05:13:02;;;;;;;15.95;6.53;;;;;;;6.28;58.03;93830.25;5061163;28;20028;-81
2023/01/27 05:15:28;;;;;;;16.63;6.78;;;;;;;6.39;57.13;93836.28;5077558;28;20139;-81
2023/01/27 05:17:54;;;;;;;24.20;7.72;;;;;;;5.87;57.14;93835.97;5077127;28;20029;-81
2023/01/27 05:20:20;;;;;;;21.02;7.38;;;;;;;6.25;56.92;93838.56;5078355;28;20020;-81
2023/01/27 05:22:45;;;;;;;19.77;7.85;;;;;;;6.26;57.12;93842.75;5077589;28;20086;-81
2023/01/27 05:25:11;;;;;;;26.00;7.93;;;;;;;6.22;56.09;93845.06;5077387;28;20434;-81
2023/01/27 05:27:36;;;;;;;25.92;8.43;;;;;;;6.07;56.50;93836.13;5077188;28;20025;-81
2023/01/27 05:30:02;;;;;;;20.20;7.07;;;;;;;5.95;58.27;93843.31;5077219;28;20082;-81
2023/01/27 05:32:28;;;;;;;18.35;7.50;;;;;;;6.43;57.58;93850.34;5076633;28;20044;-81
2023/01/27 05:34:53;;;;;;;20.45;7.68;;;;;;;6.23;56.05;93851.81;5078392;28;20050;-81
2023/01/27 05:37:19;;;;;;;22.30;7.78;;;;;;;5.93;57.24;93855.78;5060452;28;20146;-81
2023/01/27 05:39:45;;;;;;;21.15;7.25;;;;;;;5.56;57.64;93854.75;5060674;28;20131;-80
2023/01/27 05:42:10;;;;;;;16.92;6.60;;;;;;;6.10;56.00;93862.66;5076867;28;20548;-81
2023/01/27 05:44:36;;;;;;;19.58;7.60;;;;;;;5.86;56.56;93863.00;5077021;28;20028;-81
2023/01/27 05:47:01;;;;;;;19.75;7.03;;;;;;;6.17;56.55;93865.81;5060015;28;20121;-81
2023/01/27 05:49:26;;;;;;;20.88;7.45;;;;;;;5.61;57.20;93856.59;5060371;28;20392;-81
2023/01/27 05:51:52;;;;;;;22.15;6.97;;;;;;;6.23;56.39;93870.03;5075883;28;20033;-81
2023/01/27 05:54:18;;;;;;;17.60;7.15;;;;;;;6.28;57.53;93867.44;5077288;28;20119;-81
2023/01/27 05:56:44;;;;;;;25.27;7.93;;;;;;;5.44;58.22;93861.91;5076679;28;20059;-81
2023/01/27 05:59:10;;;;;;;17.42;6.80;;;;;;;5.42;58.72;93866.56;5076688;28;20040;-81
2023/01/27 06:01:36;;;;;;;20.33;7.15;;;;;;;6.16;56.27;93869.47;5076451;28;20029;-81
2023/01/27 06:04:02;;;;;;;320.20;115.63;;;;;;;5.71;58.29;93872.25;5076756;28;20024;-81
2023/01/27 06:06:30;;;;;;;82.05;26.83;;;;;;;6.04;56.94;93870.44;5076283;28;20131;-81
2023/01/27 06:08:55;;;;;;;18.85;6.53;;;;;;;6.20;55.65;93867.94;5093581;28;20028;-81
2023/01/27 06:11:22;;;;;;;33.75;14.43;;;;;;;6.42;55.49;93872.22;5110233;28;20040;-81
2023/01/27 06:13:48;;;;;;;17.15;6.60;;;;;;;5.63;55.95;93872.72;5060101;28;20062;-81
2023/01/27 06:16:18;;;;;;;18.50;6.72;;;;;;;5.85;57.51;93866.63;5075246;28;20028;-82
2023/01/27 06:18:44;;;;;;;21.40;6.45;;;;;;;6.10;56.82;93871.28;5060311;28;20032;-82
2023/01/27 06:21:11;;;;;;;14.25;6.18;;;;;;;5.83;56.43;93872.09;5076207;28;20028;-82
2023/01/27 06:23:38;;;;;;;22.58;6.40;;;;;;;6.49;54.97;93864.97;5076249;28;20067;-82
2023/01/27 06:26:07;;;;;;;19.13;6.10;;;;;;;5.89;55.95;93870.31;5059537;28;20032;-82
2023/01/27 06:28:33;;;;;;;20.58;6.80;;;;;;;6.39;54.38;93867.50;5059883;28;20032;-82
2023/01/27 06:31:05;;;;;;;13.68;6.22;;;;;;;6.44;54.66;93870.94;5076144;28;20445;-82
2023/01/27 06:33:30;;;;;;;21.70;7.50;;;;;;;5.91;56.00;93873.44;5085500;28;20055;-82
2023/01/27 06:36:01;;;;;;;18.85;7.03;;;;;;;6.53;54.43;93866.03;5096175;28;20031;-82
2023/01/27 06:38:26;;;;;;;14.07;6.57;;;;;;;5.82;55.76;93870.53;5113300;28;20425;-82
2023/01/27 06:40:52;;;;;;;21.83;6.90;;;;;;;5.87;56.75;93873.16;5096415;28;20024;-82
2023/01/27 06:43:17;;;;;;;17.73;6.78;;;;;;;6.19;55.71;93876.78;5079151;28;20034;-82
2023/01/27 06:45:43;;;;;;;20.25;6.65;;;;;;;6.51;54.85;93875.91;5078976;28;20126;-82
2023/01/27 06:48:08;;;;;;;23.95;7.65;;;;;;;6.01;55.28;93867.53;5096093;28;20417;-82
2023/01/27 06:50:36;;;;;;;18.65;6.95;;;;;;;6.22;55.92;93882.25;5096126;28;20433;-82
2023/01/27 06:53:04;;;;;;;21.23;7.38;;;;;;;5.89;55.66;93878.91;5097187;28;20494;-82
2023/01/27 06:55:29;;;;;;;16.02;6.40;;;;;;;6.14;55.21;93887.94;5095950;28;20475;-82
2023/01/27 06:57:55;;;;;;;19.27;7.40;;;;;;;5.17;57.20;93875.69;5079208;28;20059;-82
2023/01/27 07:00:21;;;;;;;18.77;7.07;;;;;;;5.71;55.14;93880.06;5079269;28;20040;-82
2023/01/27 07:02:46;;;;;;;18.40;7.32;;;;;;;5.99;54.91;93882.59;5096956;28;20032;-82
2023/01/27 07:05:12;;;;;;;18.00;7.70;;;;;;;6.18;55.45;93886.38;5095248;28;20440;-82
2023/01/27 07:07:37;;;;;;;19.10;7.15;;;;;;;6.40;53.97;93890.69;5078995;28;20042;-82
2023/01/27 07:10:04;;;;;;;18.85;7.78;;;;;;;5.80;56.82;93888.97;5095724;28;20429;-82
2023/01/27 07:12:30;;;;;;;18.75;7.22;;;;;;;6.61;54.74;93896.00;5129829;27;20028;-82
2023/01/27 07:14:55;;;;;;;22.63;7.47;;;;;;;6.26;54.35;93895.53;5095622;28;20035;-81
2023/01/27 07:17:21;;;;;;;19.63;7.97;;;;;;;5.97;54.86;93888.03;5095545;28;20103;-81
2023/01/27 07:19:46;;;;;;;24.73;8.65;;;;;;;6.18;55.39;93899.41;5095690;28;20051;-81
2023/01/27 07:22:12;;;;;;;20.15;8.32;;;;;;;6.12;55.07;93899.63;5095769;28;20032;-81
2023/01/27 07:24:37;;;;;;;23.90;7.85;;;;;;;5.48;56.77;93897.56;5079240;28;20032;-81
2023/01/27 07:27:03;;;;;;;22.30;7.68;;;;;;;6.02;56.48;93898.50;5096658;28;20425;-81
2023/01/27 07:29:28;;;;;;;23.75;8.60;;;;;;;6.74;54.34;93902.53;5096585;28;20039;-81
2023/01/27 07:31:53;;;;;;;21.77;8.48;;;;;;;5.81;55.20;93905.38;5095691;28;20030;-81
2023/01/27 07:34:19;;;;;;;24.42;8.80;;;;;;;6.12;54.64;93912.63;5095543;28;20032;-81
2023/01/27 07:36:44;;;;;;;25.05;7.68;;;;;;;6.78;53.84;93911.44;5095361;28;20426;-81
2023/01/27 07:39:10;;;;;;;23.40;9.10;;;;;;;6.85;53.47;93914.56;5095459;28;20060;-81
2023/01/27 07:41:35;;;;;;;26.70;8.30;;;;;;;6.73;53.23;93919.19;5095432;28;20027;-81
2023/01/27 07:44:00;;;;;;;22.05;8.00;;;;;;;6.81;52.71;93910.13;5096572;28;20032;-81
2023/01/27 07:46:26;;;;;;;19.90;7.97;;;;;;;6.69;54.41;93923.34;5095170;28;20486;-82
2023/01/27 07:48:51;;;;;;;24.00;8.38;;;;;;;6.58;53.49;93918.09;5092309;28;20040;-81
2023/01/27 07:51:17;;;;;;;19.85;7.63;;;;;;;6.99;53.01;93906.28;5055075;28;20435;-80
2023/01/27 07:53:43;;;;;;;26.67;8.80;;;;;;;6.50;53.08;93915.97;5055193;28;20036;-81
2023/01/27 07:56:11;;;;;;;16.63;7.32;;;;;;;7.42;51.84;93912.13;5055130;28;20033;-81
2023/01/27 07:58:38;;;;;;;25.42;8.63;;;;;;;7.27;52.21;93917.31;5056193;28;20064;-80
2023/01/27 08:01:08;;;;;;;22.88;7.70;;;;;;;7.50;52.14;93913.44;5071687;28;20029;-80
2023/01/27 08:03:34;;;;;;;19.80;7.32;;;;;;;7.62;50.50;93906.16;5055241;28;20033;-80
2023/01/27 08:06:07;;;;;;;20.77;7.85;;;;;;;7.52;50.62;93916.56;5071403;28;20039;-80
2023/01/27 08:08:32;;;;;;;;;;;;;;;7.90;49.92;93913.75;5056509;28;20025;-80
2023/01/27 08:10:59;;;;;;;20.17;7.65;;;;;;;7.32;52.33;93917.34;5106697;28;19927;-80
2023/01/27 08:13:24;;;;;;;18.70;7.40;;;;;;;7.50;51.37;93921.28;5075156;28;20113;-80
2023/01/27 08:15:56;;;;;;;18.40;9.05;;;;;;;7.25;52.00;93929.81;5076992;28;20071;-80
2023/01/27 08:18:21;;;;;;;28.33;10.98;;;;;;;7.82;51.97;93932.53;5078640;28;20082;-81
2023/01/27 08:20:46;;;;;;;19.25;8.00;;;;;;;7.04;51.91;93924.56;5078629;28;20029;-81
2023/01/27 08:23:12;;;;;;;20.60;8.07;;;;;;;7.50;51.09;93929.88;5078536;28;20033;-80
2023/01/27 08:25:38;;;;;;;17.38;7.55;;;;;;;7.09;51.83;93942.81;5078675;28;20437;-80
2023/01/27 08:28:03;;;;;;;22.83;7.63;;;;;;;6.18;53.22;93942.84;5078284;28;20060;-80
2023/01/27 08:30:29;;;;;;;21.92;8.25;;;;;;;7.80;50.42;93939.84;5078312;28;20036;-81
2023/01/27 08:32:54;;;;;;;24.30;8.45;;;;;;;6.90;51.40;93943.25;5079470;28;20075;-81
2023/01/27 08:35:20;;;;;;;22.27;8.07;;;;;;;6.70;53.24;93940.53;5062148;28;20029;-80
2023/01/27 08:37:47;;;;;;;16.50;7.72;;;;;;;7.60;51.56;93934.31;5061690;28;20032;-80
2023/01/27 08:40:12;;;;;;;18.20;7.90;;;;;;;8.05;50.83;93941.66;5078182;28;20028;-80
2023/01/27 08:42:38;;;;;;;22.50;7.90;;;;;;;7.47;50.25;93943.44;5078415;28;20055;-81
2023/01/27 08:45:04;;;;;;;27.15;8.88;;;;;;;6.73;51.83;93946.03;5078155;28;20029;-80
2023/01/27 08:47:29;;;;;;;21.45;7.78;;;;;;;7.97;50.50;93942.97;5078350;28;20036;-80
2023/01/27 08:49:55;;;;;;;20.00;8.23;;;;;;;7.33;50.17;93945.75;5078003;28;20101;-81
2023/01/27 08:52:21;;;;;;;20.90;8.70;;;;;;;7.02;51.70;93950.84;5061528;28;20036;-80
2023/01/27 08:54:47;;;;;;;24.02;8.30;;;;;;;6.87;50.95;93948.94;5077991;28;20081;-81
2023/01/27 08:57:12;;;;;;;26.83;8.50;;;;;;;7.11;51.59;93956.34;5061331;28;20028;-81
2023/01/27 08:59:38;;;;;;;22.20;8.45;;;;;;;7.32;51.14;93951.22;5077814;28;20068;-80
2023/01/27 09:02:03;;;;;;;18.10;7.22;;;;;;;8.02;49.04;93948.16;5061356;28;20035;-81
2023/01/27 09:04:29;;;;;;;19.45;7.55;;;;;;;8.18;49.65;93951.56;5078909;28;20029;-81
2023/01/27 09:06:55;;;;;;;19.35;7.15;;;;;;;8.27;48.79;93951.81;5060697;28;20121;-80
2023/01/27 09:09:21;;;;;;;19.33;7.88;;;;;;;8.25;48.71;93951.31;5077500;28;20477;-80
2023/01/27 09:11:46;;;;;;;20.67;8.25;;;;;;;7.29;49.64;93949.09;5061486;28;20166;-80
2023/01/27 09:14:12;;;;;;;22.20;7.85;;;;;;;7.42;49.62;93958.28;5077567;28;20025;-80
2023/01/27 09:16:38;;;;;;;21.95;7.57;;;;;;;7.79;50.08;93957.28;5077157;28;20034;-80
2023/01/27 09:19:03;;;;;;;17.20;8.05;;;;;;;8.04;50.10;93956.53;5077531;28;20412;-80
2023/01/27 09:21:29;;;;;;;18.15;8.02;;;;;;;8.13;50.51;93951.59;5077496;28;20096;-80
2023/01/27 09:23:55;;;;;;;27.02;8.05;;;;;;;8.37;49.29;93955.47;5077385;28;20078;-80
2023/01/27 09:26:21;;;;;;;26.55;7.80;;;;;;;8.78;47.98;93958.06;5076297;28;20056;-80
2023/01/27 09:28:46;;;;;;;21.38;8.73;;;;;;;8.02;48.24;93948.16;5077153;28;20109;-81
2023/01/27 09:31:12;;;;;;;29.92;8.40;;;;;;;9.13;46.94;93953.75;5060715;28;20028;-80
2023/01/27 09:33:37;;;;;;;23.60;8.68;;;;;;;8.44;49.47;93961.19;5077149;28;20434;-81
2023/01/27 09:36:10;;;;;;;20.63;8.93;;;;;;;8.02;48.87;93957.84;5060307;28;20504;-80
2023/01/27 09:38:45;;;;;;;19.13;7.43;;;;;;;7.16;50.59;93960.81;5060698;28;20314;-81
2023/01/27 09:41:44;;;;;;;22.08;8.38;;;;;;;7.83;51.25;93953.13;5060625;28;20444;-81
2023/01/27 09:44:10;;;;;;;23.27;8.32;;;;;;;8.45;50.59;93965.38;5078217;28;20429;-80
2023/01/27 09:46:38;;;;;;;18.15;7.78;;;;;;;8.15;49.01;93959.13;5077628;28;20173;-81
2023/01/27 09:49:31;;;;;;;17.40;8.32;;;;;;;8.32;49.35;93959.66;5078137;28;20087;-80
2023/01/27 09:52:27;;;;;;;19.77;7.63;;;;;;;8.84;47.61;93959.59;5047782;28;20212;-81
2023/01/27 09:55:24;;;;;;;22.98;7.90;;;;;;;8.80;47.97;93957.75;5076896;28;20439;-81
2023/01/27 09:58:19;;;;;;;21.08;8.10;;;;;;;8.56;48.79;93960.97;5077774;28;20081;-80
2023/01/27 10:00:57;;;;;;;15.93;7.85;;;;;;;8.93;48.24;93962.44;5060237;28;20025;-80
2023/01/27 10:03:28;;;;;;;25.23;7.47;;;;;;;9.02;47.50;93965.28;5076534;28;20028;-80
2023/01/27 10:06:22;;;;;;;19.00;7.90;;;;;;;7.60;49.35;93970.81;5077269;28;20426;-80
2023/01/27 10:09:35;;;;;;;29.20;11.60;;;;;;;8.07;49.91;93968.28;5076725;28;20033;-80
2023/01/27 10:12:19;;;;;;;19.20;7.82;;;;;;;8.67;47.98;93966.94;5075555;28;20098;-80
2023/01/27 10:14:47;;;;;;;20.13;7.95;;;;;;;8.25;48.17;93966.97;5077505;28;20032;-80
2023/01/27 10:17:34;;;;;;;21.17;8.27;;;;;;;9.00;46.69;93964.75;5077244;28;20028;-81
2023/01/27 10:20:17;;;;;;;26.85;8.63;;;;;;;9.81;45.74;93967.25;5076452;28;20028;-80
2023/01/27 10:22:52;;;;;;;27.48;8.18;;;;;;;9.84;47.01;93964.09;5076464;28;20119;-80
2023/01/27 10:25:24;;;;;;;21.13;9.95;;;;;;;9.30;47.32;93976.16;5076138;28;20133;-80
2023/01/27 10:27:56;;;;;;;20.88;8.27;;;;;;;8.24;47.78;93970.63;5076795;28;20029;-81
2023/01/27 10:30:28;;;;;;;24.95;8.50;;;;;;;8.86;47.57;93977.63;5076081;28;20028;-81
2023/01/27 10:33:06;;;;;;;21.80;9.05;;;;;;;9.36;47.40;93969.88;5077172;28;20043;-81
2023/01/27 10:35:43;;;;;;;16.27;7.20;;;;;;;8.01;47.39;93958.88;5076191;28;20074;-81
2023/01/27 10:38:36;;;;;;;25.77;8.02;;;;;;;8.35;46.86;93955.72;5075774;28;20039;-80
2023/01/27 10:41:20;;;;;;;21.83;8.32;;;;;;;8.51;47.89;93966.19;5077076;28;20021;-80
2023/01/27 10:43:56;;;;;;;14.65;7.38;;;;;;;8.86;47.27;93957.50;5075891;28;20036;-81
2023/01/27 10:46:28;;;;;;;19.52;7.75;;;;;;;9.08;46.71;93956.38;5058802;28;20072;-81
2023/01/27 10:49:02;;;;;;;22.33;7.57;;;;;;;9.34;47.23;93953.66;5076944;28;20422;-81
2023/01/27 10:51:29;;;;;;;23.60;7.75;;;;;;;9.08;47.18;93959.00;5076895;28;20044;-81
2023/01/27 10:54:16;;;;;;;18.17;7.43;;;;;;;7.97;48.55;93955.25;5075739;28;20077;-80
2023/01/27 10:56:48;;;;;;;17.20;8.35;;;;;;;9.35;47.08;93950.00;5075120;28;20131;-80
2023/01/27 10:59:25;;;;;;;20.92;7.97;;;;;;;10.00;46.26;93959.53;5076662;28;20024;-81
2023/01/27 11:02:05;;;;;;;25.45;7.40;;;;;;;9.80;46.77;93954.44;5092146;28;20036;-81
2023/01/27 11:04:43;;;;;;;18.77;7.75;;;;;;;9.47;47.22;93953.06;5072240;28;20061;-81
2023/01/27 11:07:18;;;;;;;17.20;8.15;;;;;;;9.25;47.20;93958.66;5055421;28;20453;-81
2023/01/27 11:10:09;;;;;;;14.02;6.72;;;;;;;9.24;45.80;93957.09;5072209;28;20025;-81
2023/01/27 11:12:38;;;;;;;16.58;6.82;;;;;;;10.62;45.11;93950.41;5048605;28;20040;-81
2023/01/27 11:15:24;;;;;;;17.13;7.07;;;;;;;11.07;43.95;93958.06;5072417;28;20115;-80
2023/01/27 11:17:54;;;;;;;17.67;7.38;;;;;;;11.20;43.51;93951.34;5055240;28;20025;-81
2023/01/27 11:20:34;;;;;;;15.40;7.72;;;;;;;10.99;42.22;93961.28;5055240;28;20032;-80
2023/01/27 11:23:16;;;;;;;15.07;6.93;;;;;;;9.48;46.07;93954.63;5055412;28;20024;-81
2023/01/27 11:26:20;;;;;;;19.90;7.50;;;;;;;9.36;46.84;93953.38;5055661;28;20087;-81
2023/01/27 11:29:13;;;;;;;22.92;7.18;;;;;;;9.48;46.90;93952.03;5048639;28;20153;-80
2023/01/27 11:31:52;;;;;;;19.35;7.63;;;;;;;8.14;47.09;93947.94;5056538;28;20032;-81
2023/01/27 11:35:00;;;;;;;21.58;8.00;;;;;;;9.19;47.59;93934.38;5055275;28;20035;-80
2023/01/27 11:37:35;;;;;;;16.80;7.45;;;;;;;10.16;45.39;93934.03;5043448;28;20032;-80
2023/01/27 11:40:01;;;;;;;21.08;7.20;;;;;;;10.61;45.17;93935.75;5054997;28;20127;-80
2023/01/27 11:42:33;;;;;;;17.90;7.13;;;;;;;11.02;44.69;93939.75;5055358;28;20024;-80
2023/01/27 11:45:00;;;;;;;14.07;6.68;;;;;;;11.60;42.57;93935.34;5072118;28;20495;-80
2023/01/27 11:47:32;;;;;;;19.35;7.57;;;;;;;11.13;43.71;93935.97;5055177;28;20328;-81
2023/01/27 11:49:59;;;;;;;21.58;6.90;;;;;;;10.59;44.37;93928.16;5072855;28;20028;-81
2023/01/27 11:52:27;;;;;;;15.43;6.28;;;;;;;10.06;45.01;93926.25;5079070;28;20028;-81
2023/01/27 11:55:00;;;;;;;17.45;7.00;;;;;;;10.40;44.35;93924.66;5079112;28;20024;-81
2023/01/27 11:57:27;;;;;;;16.33;7.50;;;;;;;9.19;47.13;93920.53;5080153;28;20035;-81
2023/01/27 12:00:09;;;;;;;15.95;6.72;;;;;;;9.46;44.81;93907.03;5062666;28;20405;-81
2023/01/27 12:02:44;;;;;;;17.23;7.30;;;;;;;9.98;45.49;93911.91;5083412;28;20085;-81
2023/01/27 12:05:13;;;;;;;18.85;7.15;;;;;;;8.49;47.83;93914.22;5099089;28;20028;-80
2023/01/27 12:07:45;;;;;;;13.65;6.95;;;;;;;10.15;45.70;93906.28;5132945;27;20084;-81
2023/01/27 12:10:40;;;;;;;20.90;8.18;;;;;;;10.17;44.47;93900.75;5099136;28;20330;-81